createdAt,value
2023-03-17T00:00:46.859Z,-0.62
2023-03-17T00:03:25.916Z,-0.66
2023-03-17T00:05:54.472Z,-0.60
2023-03-17T00:08:34.806Z,-0.71
2023-03-17T00:11:02.219Z,-0.59
2023-03-17T00:13:30.844Z,-0.61
2023-03-17T00:16:03.585Z,-0.48
2023-03-17T00:18:33.971Z,-0.56
2023-03-17T00:21:00.970Z,-0.60
2023-03-17T00:23:27.582Z,-0.63
2023-03-17T00:25:54.559Z,-0.65
2023-03-17T00:28:24.102Z,-0.60
2023-03-17T00:30:59.248Z,-0.60
2023-03-17T00:33:30.698Z,-0.55
2023-03-17T00:35:57.691Z,-0.53
2023-03-17T00:38:25.534Z,-0.42
2023-03-17T00:40:52.138Z,-0.39
2023-03-17T00:43:18.690Z,-0.35
2023-03-17T00:45:47.073Z,-0.38
2023-03-17T00:48:19.683Z,-0.43
2023-03-17T00:50:49.794Z,-0.01
2023-03-17T00:53:18.199Z,-0.07
2023-03-17T00:55:45.473Z,-0.24
2023-03-17T00:58:24.221Z,-0.17
2023-03-17T01:00:52.156Z,-0.18
2023-03-17T01:03:18.989Z,-0.18
2023-03-17T01:05:46.157Z,-0.10
2023-03-17T01:08:12.690Z,-0.12
2023-03-17T01:10:39.357Z,-0.17
2023-03-17T01:13:07.913Z,-0.20
2023-03-17T01:15:34.542Z,-0.17
2023-03-17T01:18:02.633Z,-0.14
2023-03-17T01:20:32.787Z,0.11
2023-03-17T01:23:00.486Z,0.20
2023-03-17T01:25:28.479Z,0.07
2023-03-17T01:27:59.679Z,0.27
2023-03-17T01:30:30.897Z,0.35
2023-03-17T01:32:58.496Z,0.20
2023-03-17T01:35:26.373Z,0.16
2023-03-17T01:37:53.344Z,0.03
2023-03-17T01:40:23.210Z,-0.03
2023-03-17T01:42:55.128Z,0.01
2023-03-17T01:45:59.378Z,-0.02
2023-03-17T01:48:26.602Z,-0.13
2023-03-17T01:50:53.832Z,-0.17
2023-03-17T01:53:21.399Z,-0.08
2023-03-17T01:55:49.414Z,-0.19
2023-03-17T01:58:17.527Z,-0.15
2023-03-17T02:00:44.261Z,-0.18
2023-03-17T02:03:11.637Z,-0.11
2023-03-17T02:05:40.197Z,0.28
2023-03-17T02:08:13.458Z,0.16
2023-03-17T02:10:43.401Z,0.08
2023-03-17T02:13:11.556Z,0.13
2023-03-17T02:15:49.546Z,0.30
2023-03-17T02:18:17.705Z,0.44
2023-03-17T02:20:46.932Z,0.41
2023-03-17T02:23:19.514Z,0.39
2023-03-17T02:25:48.201Z,0.23
2023-03-17T02:28:22.750Z,0.23
2023-03-17T02:30:49.423Z,0.13
2023-03-17T02:33:15.974Z,0.02
2023-03-17T02:35:42.496Z,0.37
2023-03-17T02:38:08.988Z,0.41
2023-03-17T02:40:35.469Z,0.64
2023-03-17T02:43:02.411Z,0.51
2023-03-17T02:45:28.944Z,0.33
2023-03-17T02:47:55.946Z,0.43
2023-03-17T02:50:24.421Z,0.52
2023-03-17T02:52:51.362Z,0.48
2023-03-17T02:55:17.949Z,0.36
2023-03-17T02:57:44.538Z,0.34
2023-03-17T03:00:11.607Z,0.31
2023-03-17T03:02:38.981Z,0.28
2023-03-17T03:05:06.116Z,0.18
2023-03-17T03:07:32.649Z,0.13
2023-03-17T03:09:59.538Z,0.05
2023-03-17T03:12:26.247Z,0.04
2023-03-17T03:14:52.709Z,0.06
2023-03-17T03:17:19.263Z,0.12
2023-03-17T03:19:47.611Z,0.18
2023-03-17T03:22:14.127Z,0.20
2023-03-17T03:24:41.083Z,0.24
2023-03-17T03:27:08.336Z,0.30
2023-03-17T03:29:34.856Z,0.35
2023-03-17T03:32:01.657Z,0.35
2023-03-17T03:34:28.475Z,0.40
2023-03-17T03:36:54.973Z,0.43
2023-03-17T03:39:21.537Z,0.33
2023-03-17T03:41:48.277Z,0.34
2023-03-17T03:44:14.741Z,0.33
2023-03-17T03:46:41.398Z,0.33
2023-03-17T03:49:07.972Z,0.23
2023-03-17T03:51:34.438Z,0.14
2023-03-17T03:54:01.725Z,0.10
2023-03-17T03:56:28.257Z,0.08
2023-03-17T03:58:54.896Z,-0.06
2023-03-17T04:01:21.350Z,-0.10
2023-03-17T04:03:47.890Z,-0.15
2023-03-17T04:06:14.374Z,-0.08
2023-03-17T04:08:40.864Z,-0.10
2023-03-17T04:11:09.140Z,-0.11
2023-03-17T04:13:36.006Z,-0.10
2023-03-17T04:16:03.315Z,-0.13
2023-03-17T04:18:31.020Z,-0.13
2023-03-17T04:20:57.686Z,-0.17
2023-03-17T04:23:24.139Z,-0.18
2023-03-17T04:25:52.807Z,-0.14
2023-03-17T04:28:19.539Z,-0.09
2023-03-17T04:30:46.331Z,-0.06
2023-03-17T04:33:12.835Z,0.01
2023-03-17T04:35:39.352Z,0.02
2023-03-17T04:38:05.860Z,0.08
2023-03-17T04:40:32.554Z,0.08
2023-03-17T04:42:59.160Z,0.10
2023-03-17T04:45:25.746Z,0.13
2023-03-17T04:47:52.379Z,0.13
2023-03-17T04:50:19.027Z,0.18
2023-03-17T04:52:45.648Z,0.17
2023-03-17T04:55:12.615Z,0.31
2023-03-17T04:57:39.199Z,0.35
2023-03-17T05:00:07.195Z,0.38
2023-03-17T05:02:40.974Z,0.29
2023-03-17T05:05:07.553Z,0.33
2023-03-17T05:07:34.294Z,0.30
2023-03-17T05:10:02.156Z,0.31
2023-03-17T05:12:28.689Z,0.38
2023-03-17T05:14:55.457Z,0.41
2023-03-17T05:17:22.186Z,0.32
2023-03-17T05:19:48.628Z,0.27
2023-03-17T05:22:15.530Z,0.15
2023-03-17T05:24:42.172Z,0.18
2023-03-17T05:27:10.815Z,0.17
2023-03-17T05:29:40.142Z,0.14
2023-03-17T05:32:06.743Z,0.17
2023-03-17T05:34:33.522Z,0.18
2023-03-17T05:37:00.112Z,0.28
2023-03-17T05:39:26.629Z,0.31
2023-03-17T05:41:53.270Z,0.30
2023-03-17T05:44:20.348Z,0.24
2023-03-17T05:46:46.889Z,0.18
2023-03-17T05:49:13.589Z,0.18
2023-03-17T05:51:42.107Z,0.17
2023-03-17T05:54:08.877Z,0.19
2023-03-17T05:56:35.951Z,0.20
2023-03-17T05:59:02.411Z,0.26
2023-03-17T06:01:29.582Z,0.19
2023-03-17T06:03:56.184Z,0.17
2023-03-17T06:06:23.875Z,0.38
2023-03-17T06:08:50.374Z,0.40
2023-03-17T06:11:18.153Z,0.36
2023-03-17T06:13:44.623Z,0.25
2023-03-17T06:16:11.215Z,0.13
2023-03-17T06:18:37.852Z,0.03
2023-03-17T06:21:04.532Z,0.06
2023-03-17T06:23:31.208Z,0.09
2023-03-17T06:25:57.707Z,0.03
2023-03-17T06:28:24.243Z,0.04
2023-03-17T06:30:50.835Z,0.05
2023-03-17T06:33:18.250Z,0.06
2023-03-17T06:35:44.879Z,0.09
2023-03-17T06:38:11.414Z,0.13
2023-03-17T06:40:38.110Z,0.15
2023-03-17T06:43:04.841Z,0.09
2023-03-17T06:45:33.066Z,0.23
2023-03-17T06:47:59.797Z,0.39
2023-03-17T06:50:26.994Z,0.51
2023-03-17T06:52:53.549Z,0.58
2023-03-17T06:55:21.275Z,0.62
2023-03-17T06:57:50.430Z,0.60
2023-03-17T07:00:18.249Z,0.54
2023-03-17T07:02:44.736Z,0.50
2023-03-17T07:05:12.600Z,0.50
2023-03-17T07:07:39.529Z,0.63
2023-03-17T07:10:06.994Z,0.61
2023-03-17T07:12:33.742Z,0.45
2023-03-17T07:15:01.353Z,0.39
2023-03-17T07:17:28.107Z,0.46
2023-03-17T07:19:54.612Z,0.44
2023-03-17T07:22:21.152Z,0.60
2023-03-17T07:24:49.119Z,0.65
2023-03-17T07:27:16.749Z,0.63
2023-03-17T07:29:43.318Z,0.55
2023-03-17T07:32:10.393Z,0.69
2023-03-17T07:34:37.393Z,0.81
2023-03-17T07:37:04.373Z,0.82
2023-03-17T07:39:31.242Z,0.89
2023-03-17T07:41:57.800Z,0.98
2023-03-17T07:44:24.954Z,0.93
2023-03-17T07:46:52.067Z,0.97
2023-03-17T07:49:27.633Z,0.98
2023-03-17T07:52:00.741Z,0.98
2023-03-17T07:54:28.958Z,1.06
2023-03-17T07:56:56.034Z,1.15
2023-03-17T07:59:23.273Z,1.25
2023-03-17T08:01:50.567Z,1.27
2023-03-17T08:04:17.101Z,1.34
2023-03-17T08:06:43.582Z,1.47
2023-03-17T08:09:11.155Z,1.56
2023-03-17T08:11:40.661Z,1.57
2023-03-17T08:14:07.478Z,1.68
2023-03-17T08:16:34.027Z,1.73
2023-03-17T08:19:00.856Z,1.87
2023-03-17T08:21:27.516Z,2.04
2023-03-17T08:23:54.475Z,1.99
2023-03-17T08:26:23.165Z,2.04
2023-03-17T08:28:50.314Z,2.28
2023-03-17T08:31:22.605Z,2.82
2023-03-17T08:33:51.531Z,2.82
2023-03-17T08:36:19.004Z,2.70
2023-03-17T08:38:46.277Z,2.75
2023-03-17T08:41:16.576Z,2.71
2023-03-17T08:43:44.068Z,2.84
2023-03-17T08:46:19.653Z,2.63
2023-03-17T08:48:48.186Z,2.54
2023-03-17T08:51:18.222Z,2.61
2023-03-17T08:53:46.470Z,2.73
2023-03-17T08:56:14.080Z,2.92
2023-03-17T08:58:40.556Z,2.85
2023-03-17T09:01:07.148Z,2.96
2023-03-17T09:03:34.098Z,3.05
2023-03-17T09:06:00.885Z,3.22
2023-03-17T09:08:27.940Z,3.46
2023-03-17T09:10:54.521Z,3.68
2023-03-17T09:13:21.935Z,3.72
2023-03-17T09:15:50.115Z,3.86
2023-03-17T09:18:20.764Z,3.60
2023-03-17T09:20:48.667Z,3.41
2023-03-17T09:23:15.958Z,3.39
2023-03-17T09:25:43.229Z,3.29
2023-03-17T09:28:11.890Z,3.28
2023-03-17T09:30:42.716Z,3.51
2023-03-17T09:33:10.679Z,3.43
2023-03-17T09:35:37.575Z,3.54
2023-03-17T09:38:04.080Z,3.40
2023-03-17T09:40:33.891Z,3.50
2023-03-17T09:43:15.318Z,3.44
2023-03-17T09:45:43.641Z,3.45
2023-03-17T09:48:41.802Z,3.63
2023-03-17T09:51:11.043Z,3.59
2023-03-17T09:53:48.840Z,3.80
2023-03-17T09:56:17.019Z,3.89
2023-03-17T09:58:54.742Z,3.98
2023-03-17T10:01:22.791Z,4.11
2023-03-17T10:03:50.880Z,4.41
2023-03-17T10:06:40.505Z,4.58
2023-03-17T10:09:35.220Z,4.70
2023-03-17T10:12:38.246Z,4.71
2023-03-17T10:15:11.418Z,4.94
2023-03-17T10:17:41.569Z,4.76
2023-03-17T10:20:18.315Z,4.79
2023-03-17T10:22:46.265Z,4.78
2023-03-17T10:25:21.937Z,4.96
2023-03-17T10:27:57.124Z,5.01
2023-03-17T10:30:23.869Z,4.99
2023-03-17T10:32:52.424Z,5.13
2023-03-17T10:35:20.236Z,5.10
2023-03-17T10:37:47.927Z,4.95
2023-03-17T10:40:28.664Z,5.00
2023-03-17T10:43:01.650Z,4.97
2023-03-17T10:45:30.981Z,5.16
2023-03-17T10:47:58.970Z,5.27
2023-03-17T10:50:34.854Z,5.44
2023-03-17T10:53:04.265Z,5.37
2023-03-17T10:55:39.424Z,5.24
2023-03-17T10:58:07.245Z,5.33
2023-03-17T11:00:36.569Z,5.39
2023-03-17T11:03:20.964Z,5.44
2023-03-17T11:06:04.448Z,5.52
2023-03-17T11:08:36.543Z,5.56
2023-03-17T11:11:06.523Z,5.65
2023-03-17T11:13:33.145Z,5.74
2023-03-17T11:16:22.424Z,5.75
2023-03-17T11:18:51.461Z,5.68
2023-03-17T11:21:30.297Z,5.68
2023-03-17T11:24:16.465Z,5.74
2023-03-17T11:26:50.543Z,5.83
2023-03-17T11:29:52.137Z,5.97
2023-03-17T11:32:36.871Z,6.18
2023-03-17T11:35:42.135Z,6.17
2023-03-17T11:38:19.412Z,6.14
2023-03-17T11:41:05.360Z,6.32
2023-03-17T11:43:50.785Z,6.43
2023-03-17T11:46:23.318Z,6.49
2023-03-17T11:48:58.936Z,6.35
2023-03-17T11:51:43.519Z,6.46
2023-03-17T11:54:19.439Z,6.35
2023-03-17T11:56:48.665Z,6.78
2023-03-17T11:59:27.079Z,6.83
2023-03-17T12:01:59.413Z,6.81
2023-03-17T12:04:30.630Z,6.80
2023-03-17T12:07:09.113Z,6.90
2023-03-17T12:09:45.620Z,6.89
2023-03-17T12:12:17.021Z,6.93
2023-03-17T12:14:48.470Z,6.87
2023-03-17T12:17:27.127Z,7.06
2023-03-17T12:20:22.229Z,7.16
2023-03-17T12:22:57.133Z,7.17
2023-03-17T12:25:32.818Z,7.33
2023-03-17T12:28:17.686Z,7.44
2023-03-17T12:31:06.029Z,7.26
2023-03-17T12:34:10.865Z,7.17
2023-03-17T12:36:39.587Z,7.13
2023-03-17T12:39:12.560Z,6.98
2023-03-17T12:42:05.482Z,6.86
2023-03-17T12:44:52.755Z,6.91
2023-03-17T12:47:47.124Z,6.93
2023-03-17T12:50:22.884Z,6.90
2023-03-17T12:53:04.505Z,7.03
2023-03-17T12:55:33.039Z,6.99
2023-03-17T12:58:05.662Z,7.09
2023-03-17T13:00:34.491Z,7.27
2023-03-17T13:03:27.803Z,7.44
2023-03-17T13:06:05.697Z,7.72
2023-03-17T13:08:35.704Z,7.80
2023-03-17T13:11:16.297Z,8.08
2023-03-17T13:13:54.781Z,8.16
2023-03-17T13:16:31.992Z,8.08
2023-03-17T13:19:18.810Z,8.16
2023-03-17T13:22:04.638Z,8.32
2023-03-17T13:24:41.995Z,8.46
2023-03-17T13:27:14.434Z,8.51
2023-03-17T13:29:43.935Z,8.34
2023-03-17T13:32:31.533Z,8.29
2023-03-17T13:35:16.739Z,7.94
2023-03-17T13:38:37.555Z,8.22
2023-03-17T13:41:23.952Z,8.30
2023-03-17T13:43:56.856Z,8.02
2023-03-17T13:46:41.850Z,8.34
2023-03-17T13:49:18.777Z,8.05
2023-03-17T13:52:12.595Z,8.15
2023-03-17T13:54:49.282Z,8.20
2023-03-17T13:57:30.755Z,8.15
2023-03-17T13:59:59.897Z,8.40
2023-03-17T14:02:30.410Z,8.20
2023-03-17T14:05:14.520Z,8.38
2023-03-17T14:07:47.906Z,8.16
2023-03-17T14:10:19.836Z,8.11
2023-03-17T14:12:51.171Z,8.05
2023-03-17T14:15:33.451Z,8.15
2023-03-17T14:18:08.818Z,8.12
2023-03-17T14:20:35.365Z,8.26
2023-03-17T14:23:03.756Z,8.32
2023-03-17T14:25:38.643Z,8.19
2023-03-17T14:28:10.679Z,8.37
2023-03-17T14:30:37.743Z,8.34
2023-03-17T14:33:07.212Z,8.28
2023-03-17T14:35:37.534Z,8.12
2023-03-17T14:38:16.308Z,7.95
2023-03-17T14:40:42.748Z,7.89
2023-03-17T14:43:10.508Z,7.74
2023-03-17T14:45:47.633Z,7.65
2023-03-17T14:48:15.680Z,7.63
2023-03-17T14:50:54.332Z,7.59
2023-03-17T14:53:22.548Z,7.63
2023-03-17T14:55:49.253Z,7.60
2023-03-17T14:58:23.627Z,7.60
2023-03-17T15:01:17.989Z,7.60
2023-03-17T15:04:00.759Z,7.56
2023-03-17T15:06:29.938Z,7.56
2023-03-17T15:09:03.999Z,7.57
2023-03-17T15:11:40.581Z,7.57
2023-03-17T15:14:21.303Z,7.57
2023-03-17T15:16:52.684Z,7.62
2023-03-17T15:19:22.289Z,7.65
2023-03-17T15:21:49.493Z,7.61
2023-03-17T15:24:41.142Z,7.64
2023-03-17T15:27:15.448Z,7.59
2023-03-17T15:29:42.056Z,7.63
2023-03-17T15:32:15.427Z,7.63
2023-03-17T15:34:42.337Z,7.59
2023-03-17T15:37:19.886Z,7.58
2023-03-17T15:39:47.575Z,7.59
2023-03-17T15:42:16.085Z,7.56
2023-03-17T15:44:42.693Z,7.57
2023-03-17T15:47:14.104Z,7.50
2023-03-17T15:49:40.591Z,7.47
2023-03-17T15:52:25.457Z,7.46
2023-03-17T15:54:54.757Z,7.46
2023-03-17T15:57:21.580Z,7.44
2023-03-17T15:59:48.065Z,7.44
2023-03-17T16:02:57.216Z,7.41
2023-03-17T16:05:28.131Z,7.36
2023-03-17T16:07:57.770Z,7.35
2023-03-17T16:10:27.490Z,7.31
2023-03-17T16:12:54.667Z,7.30
2023-03-17T16:15:23.900Z,7.26
2023-03-17T16:18:05.228Z,7.20
2023-03-17T16:20:38.389Z,7.23
2023-03-17T16:23:11.628Z,7.21
2023-03-17T16:25:38.518Z,7.20
2023-03-17T16:28:14.327Z,7.16
2023-03-17T16:30:41.197Z,7.14
2023-03-17T16:33:32.330Z,7.11
2023-03-17T16:36:00.658Z,7.06
2023-03-17T16:38:29.646Z,7.07
2023-03-17T16:41:01.537Z,7.04
2023-03-17T16:43:30.556Z,7.01
2023-03-17T16:46:01.588Z,6.99
2023-03-17T16:48:28.446Z,6.99
2023-03-17T16:51:13.600Z,6.93
2023-03-17T16:53:40.271Z,6.90
2023-03-17T16:56:14.421Z,6.88
2023-03-17T16:58:41.658Z,6.89
2023-03-17T17:01:15.307Z,6.84
2023-03-17T17:03:42.760Z,6.84
2023-03-17T17:06:10.562Z,6.83
2023-03-17T17:08:37.063Z,6.83
2023-03-17T17:11:03.795Z,6.81
2023-03-17T17:13:30.456Z,6.78
2023-03-17T17:15:57.092Z,6.79
2023-03-17T17:18:24.687Z,6.73
2023-03-17T17:20:52.415Z,6.70
2023-03-17T17:23:28.549Z,6.67
2023-03-17T17:25:57.287Z,6.65
2023-03-17T17:28:24.893Z,6.61
2023-03-17T17:30:52.203Z,6.58
2023-03-17T17:33:19.656Z,6.57
2023-03-17T17:35:47.797Z,6.50
2023-03-17T17:38:32.598Z,6.49
2023-03-17T17:41:05.754Z,6.49
2023-03-17T17:43:32.616Z,6.42
2023-03-17T17:45:59.265Z,6.38
2023-03-17T17:48:27.049Z,6.33
2023-03-17T17:50:54.744Z,6.32
2023-03-17T17:53:21.260Z,6.24
2023-03-17T17:55:49.751Z,6.24
2023-03-17T17:58:22.709Z,6.16
2023-03-17T18:00:49.860Z,6.08
2023-03-17T18:27:27.257Z,5.73
2023-03-17T18:29:55.470Z,5.71
2023-03-17T18:32:21.966Z,5.69
2023-03-17T18:34:48.764Z,5.66
2023-03-17T18:37:17.417Z,5.63
2023-03-17T18:39:44.632Z,5.60
2023-03-17T18:42:11.694Z,5.58
2023-03-17T18:44:39.900Z,5.56
2023-03-17T18:47:07.463Z,5.54
2023-03-17T18:49:34.205Z,5.52
2023-03-17T18:52:01.000Z,5.51
2023-03-17T18:54:28.450Z,5.51
2023-03-17T18:56:55.824Z,5.50
2023-03-17T18:59:22.422Z,5.49
2023-03-17T19:01:48.922Z,5.49
2023-03-17T19:04:15.674Z,5.43
2023-03-17T19:06:42.767Z,5.43
2023-03-17T19:09:10.320Z,5.43
2023-03-17T19:11:38.828Z,5.40
2023-03-17T19:14:06.413Z,5.40
2023-03-17T19:16:33.312Z,5.38
2023-03-17T19:19:00.106Z,5.38
2023-03-17T19:21:26.747Z,5.35
2023-03-17T19:23:53.876Z,5.30
2023-03-17T19:26:20.819Z,5.31
2023-03-17T19:28:47.405Z,5.34
2023-03-17T19:31:14.078Z,5.37
2023-03-17T19:33:40.948Z,5.34
2023-03-17T19:36:11.309Z,5.36
2023-03-17T19:38:38.128Z,5.33
2023-03-17T19:41:05.233Z,5.28
2023-03-17T19:43:40.417Z,5.26
2023-03-17T19:46:08.235Z,5.26
2023-03-17T19:48:35.555Z,5.25
2023-03-17T19:51:02.160Z,5.24
2023-03-17T19:53:28.767Z,5.22
2023-03-17T19:55:56.656Z,5.21
2023-03-17T19:58:23.252Z,5.18
2023-03-17T20:00:49.856Z,5.17
2023-03-17T20:03:16.598Z,5.15
2023-03-17T20:05:45.662Z,5.18
2023-03-17T20:08:12.237Z,5.17
2023-03-17T20:10:39.127Z,5.17
2023-03-17T20:13:06.372Z,5.17
2023-03-17T20:15:33.695Z,5.14
2023-03-17T20:18:00.742Z,5.14
2023-03-17T20:20:27.390Z,5.15
2023-03-17T20:22:53.973Z,5.19
2023-03-17T20:25:20.507Z,5.18
2023-03-17T20:27:47.114Z,5.16
2023-03-17T20:30:13.829Z,5.12
2023-03-17T20:32:40.482Z,5.17
2023-03-17T20:35:08.274Z,5.14
2023-03-17T20:37:35.604Z,5.13
2023-03-17T20:40:05.113Z,5.14
2023-03-17T20:42:31.993Z,5.16
2023-03-17T20:44:58.538Z,5.14
2023-03-17T20:47:25.089Z,5.14
2023-03-17T20:49:53.083Z,5.11
2023-03-17T20:52:19.903Z,5.08
2023-03-17T20:54:46.896Z,5.07
2023-03-17T20:57:14.235Z,5.03
2023-03-17T20:59:41.613Z,5.04
2023-03-17T21:02:14.666Z,5.05
2023-03-17T21:04:46.561Z,5.05
2023-03-17T21:07:18.130Z,5.03
2023-03-17T21:09:44.936Z,5.00
2023-03-17T21:12:18.325Z,5.01
2023-03-17T21:14:48.033Z,5.01
2023-03-17T21:17:16.288Z,4.97
2023-03-17T21:19:43.429Z,4.97
2023-03-17T21:22:10.339Z,4.95
2023-03-17T21:24:38.264Z,4.90
2023-03-17T21:27:06.645Z,4.89
2023-03-17T21:29:34.220Z,4.84
2023-03-17T21:32:01.973Z,4.84
2023-03-17T21:34:29.997Z,4.83
2023-03-17T21:36:57.426Z,4.79
2023-03-17T21:39:24.772Z,4.76
2023-03-17T21:41:51.419Z,4.73
2023-03-17T21:44:19.301Z,4.74
2023-03-17T21:46:47.901Z,4.74
2023-03-17T21:49:16.356Z,4.77
2023-03-17T21:51:44.272Z,4.79
2023-03-17T21:54:11.354Z,4.79
2023-03-17T21:56:38.772Z,4.84
2023-03-17T21:59:05.982Z,4.85
2023-03-17T22:01:33.271Z,4.86
2023-03-17T22:03:59.982Z,4.87
2023-03-17T22:06:27.562Z,4.88
2023-03-17T22:08:54.667Z,4.91
2023-03-17T22:11:21.518Z,4.91
2023-03-17T22:13:48.282Z,4.89
2023-03-17T22:16:16.029Z,4.88
2023-03-17T22:18:42.863Z,4.89
2023-03-17T22:21:10.110Z,4.87
2023-03-17T22:23:41.473Z,4.88
2023-03-17T22:26:09.701Z,4.91
2023-03-17T22:28:36.188Z,4.90
2023-03-17T22:31:05.067Z,4.92
2023-03-17T22:33:31.541Z,4.89
2023-03-17T22:35:58.839Z,4.86
2023-03-17T22:38:25.673Z,4.88
2023-03-17T22:41:03.698Z,4.85
2023-03-17T22:43:30.398Z,4.88
2023-03-17T22:45:56.895Z,4.88
2023-03-17T22:48:23.503Z,4.86
2023-03-17T22:50:50.000Z,4.80
2023-03-17T22:53:16.609Z,4.81
2023-03-17T22:55:43.498Z,4.79
2023-03-17T22:58:10.161Z,4.82
2023-03-17T23:00:37.453Z,4.82
2023-03-17T23:03:04.359Z,4.83
2023-03-17T23:05:30.919Z,4.85
2023-03-17T23:07:57.509Z,4.83
2023-03-17T23:10:24.800Z,4.80
2023-03-17T23:12:51.820Z,4.82
2023-03-17T23:15:19.703Z,4.82
2023-03-17T23:17:47.049Z,4.81
2023-03-17T23:20:15.022Z,4.81
2023-03-17T23:22:41.586Z,4.82
2023-03-17T23:25:08.644Z,4.79
2023-03-17T23:27:35.216Z,4.82
2023-03-17T23:30:01.861Z,4.79
2023-03-17T23:32:28.395Z,4.77
2023-03-17T23:34:55.220Z,4.78
2023-03-17T23:37:21.720Z,4.75
2023-03-17T23:39:48.538Z,4.76
2023-03-17T23:42:16.905Z,4.74
2023-03-17T23:44:45.077Z,4.69
2023-03-17T23:47:11.778Z,4.66
2023-03-17T23:49:38.926Z,4.68
2023-03-17T23:52:05.555Z,4.66
2023-03-17T23:54:32.144Z,4.67
2023-03-17T23:56:58.625Z,4.62
2023-03-17T23:59:26.478Z,4.62
